Terminal Aerodrome Forecast
Issued by NWS Wilmington, OH

Current Version | Previous Version | Text Only | Print | Product List | Glossary Off
Versions: 1 2 3 4 5 6 7 8 9 10 11 12 13 14 15 16 17 18 19 20 21 22 23 24 25 26

000
FTUS41 KILN 261121
TAFILN
TAF
KILN 261121Z 2612/2712 23005KT P6SM SCT050 BKN250
      TEMPO 2612/2613 5SM BR
     FM261800 32005KT P6SM VCSH BKN040
      TEMPO 2621/2623 5SM -TSRA BR BKN030CB OVC150
     FM270200 35005KT P6SM SCT120
     FM270500 04004KT P6SM SKC=

USA.gov is the U.S. government's official web portal to all federal, state and local government web resources and services.